sensor_id;sensor_type;location;lat;lon;timestamp;temperature;humidity
43665;DHT22;29263;48.172;11.484;2022-12-10T00:00:37;1.40;99.90
43665;DHT22;29263;48.172;11.484;2022-12-10T00:03:03;1.40;99.90
43665;DHT22;29263;48.172;11.484;2022-12-10T00:05:28;1.40;99.90
43665;DHT22;29263;48.172;11.484;2022-12-10T00:07:54;1.50;99.90
43665;DHT22;29263;48.172;11.484;2022-12-10T00:10:20;1.50;99.90
43665;DHT22;29263;48.172;11.484;2022-12-10T00:12:45;1.40;99.90
43665;DHT22;29263;48.172;11.484;2022-12-10T00:15:11;1.40;99.90
43665;DHT22;29263;48.172;11.484;2022-12-10T00:17:36;1.50;99.90
43665;DHT22;29263;48.172;11.484;2022-12-10T00:20:02;1.50;99.90
43665;DHT22;29263;48.172;11.484;2022-12-10T00:22:28;1.50;99.90
43665;DHT22;29263;48.172;11.484;2022-12-10T00:24:53;1.50;99.90
43665;DHT22;29263;48.172;11.484;2022-12-10T00:27:19;1.40;99.90
43665;DHT22;29263;48.172;11.484;2022-12-10T00:29:45;1.40;99.90
43665;DHT22;29263;48.172;11.484;2022-12-10T00:32:10;1.50;99.90
43665;DHT22;29263;48.172;11.484;2022-12-10T00:34:36;1.40;99.90
43665;DHT22;29263;48.172;11.484;2022-12-10T00:37:01;1.40;99.90
43665;DHT22;29263;48.172;11.484;2022-12-10T00:39:27;1.40;99.90
43665;DHT22;29263;48.172;11.484;2022-12-10T00:41:53;1.40;99.90
43665;DHT22;29263;48.172;11.484;2022-12-10T00:44:18;1.60;99.90
43665;DHT22;29263;48.172;11.484;2022-12-10T00:46:44;1.70;99.90
43665;DHT22;29263;48.172;11.484;2022-12-10T00:49:10;1.70;99.90
43665;DHT22;29263;48.172;11.484;2022-12-10T00:51:36;1.60;99.90
43665;DHT22;29263;48.172;11.484;2022-12-10T00:54:01;1.60;99.90
43665;DHT22;29263;48.172;11.484;2022-12-10T00:56:30;1.60;99.90
43665;DHT22;29263;48.172;11.484;2022-12-10T00:58:56;1.60;99.90
43665;DHT22;29263;48.172;11.484;2022-12-10T01:01:23;1.50;99.90
43665;DHT22;29263;48.172;11.484;2022-12-10T01:03:51;1.50;99.90
43665;DHT22;29263;48.172;11.484;2022-12-10T01:06:21;1.50;99.90
43665;DHT22;29263;48.172;11.484;2022-12-10T01:08:48;1.40;99.90
43665;DHT22;29263;48.172;11.484;2022-12-10T01:11:16;1.40;99.90
43665;DHT22;29263;48.172;11.484;2022-12-10T01:13:43;1.50;99.90
43665;DHT22;29263;48.172;11.484;2022-12-10T01:16:10;1.40;99.90
43665;DHT22;29263;48.172;11.484;2022-12-10T01:18:36;1.40;99.90
43665;DHT22;29263;48.172;11.484;2022-12-10T01:21:03;1.40;99.90
43665;DHT22;29263;48.172;11.484;2022-12-10T01:23:32;1.40;99.90
43665;DHT22;29263;48.172;11.484;2022-12-10T01:26:02;1.40;99.90
43665;DHT22;29263;48.172;11.484;2022-12-10T01:28:30;1.40;99.90
43665;DHT22;29263;48.172;11.484;2022-12-10T01:31:03;1.40;99.90
43665;DHT22;29263;48.172;11.484;2022-12-10T01:33:29;1.40;99.90
43665;DHT22;29263;48.172;11.484;2022-12-10T01:35:55;1.30;99.90
43665;DHT22;29263;48.172;11.484;2022-12-10T01:38:21;1.40;99.90
43665;DHT22;29263;48.172;11.484;2022-12-10T01:40:47;1.40;99.90
43665;DHT22;29263;48.172;11.484;2022-12-10T01:43:14;1.40;99.90
43665;DHT22;29263;48.172;11.484;2022-12-10T01:45:40;1.40;99.90
43665;DHT22;29263;48.172;11.484;2022-12-10T01:48:06;1.40;99.90
43665;DHT22;29263;48.172;11.484;2022-12-10T01:50:32;1.30;99.90
43665;DHT22;29263;48.172;11.484;2022-12-10T01:52:57;1.30;99.90
43665;DHT22;29263;48.172;11.484;2022-12-10T01:55:43;1.40;99.90
43665;DHT22;29263;48.172;11.484;2022-12-10T01:58:10;1.40;99.90
43665;DHT22;29263;48.172;11.484;2022-12-10T02:00:43;1.40;99.90
43665;DHT22;29263;48.172;11.484;2022-12-10T02:03:14;1.30;99.90
43665;DHT22;29263;48.172;11.484;2022-12-10T02:05:52;1.30;99.90
43665;DHT22;29263;48.172;11.484;2022-12-10T02:08:44;1.30;99.90
43665;DHT22;29263;48.172;11.484;2022-12-10T02:11:16;1.30;99.90
43665;DHT22;29263;48.172;11.484;2022-12-10T02:13:56;1.40;99.90
43665;DHT22;29263;48.172;11.484;2022-12-10T02:22:06;1.30;99.90
43665;DHT22;29263;48.172;11.484;2022-12-10T02:24:34;1.30;99.90
43665;DHT22;29263;48.172;11.484;2022-12-10T02:27:39;1.30;99.90
43665;DHT22;29263;48.172;11.484;2022-12-10T02:30:00;1.30;99.90
43665;DHT22;29263;48.172;11.484;2022-12-10T02:32:33;1.30;99.90
43665;DHT22;29263;48.172;11.484;2022-12-10T02:35:01;1.30;99.90
43665;DHT22;29263;48.172;11.484;2022-12-10T02:37:36;1.30;99.90
43665;DHT22;29263;48.172;11.484;2022-12-10T02:40:08;1.40;99.90
43665;DHT22;29263;48.172;11.484;2022-12-10T02:42:38;1.30;99.90
43665;DHT22;29263;48.172;11.484;2022-12-10T02:45:06;1.30;99.90
43665;DHT22;29263;48.172;11.484;2022-12-10T02:47:32;1.30;99.90
43665;DHT22;29263;48.172;11.484;2022-12-10T02:49:58;1.30;99.90
43665;DHT22;29263;48.172;11.484;2022-12-10T02:52:24;1.30;99.90
43665;DHT22;29263;48.172;11.484;2022-12-10T02:54:51;1.30;99.90
43665;DHT22;29263;48.172;11.484;2022-12-10T02:57:45;1.30;99.90
43665;DHT22;29263;48.172;11.484;2022-12-10T03:00:18;1.30;99.90
43665;DHT22;29263;48.172;11.484;2022-12-10T03:10:41;1.30;99.90
43665;DHT22;29263;48.172;11.484;2022-12-10T03:13:12;1.30;99.90
43665;DHT22;29263;48.172;11.484;2022-12-10T03:15:40;1.30;99.90
43665;DHT22;29263;48.172;11.484;2022-12-10T03:18:07;1.30;99.90
43665;DHT22;29263;48.172;11.484;2022-12-10T03:20:37;1.40;99.90
43665;DHT22;29263;48.172;11.484;2022-12-10T03:23:08;1.30;99.90
43665;DHT22;29263;48.172;11.484;2022-12-10T03:25:35;1.30;99.90
43665;DHT22;29263;48.172;11.484;2022-12-10T03:28:03;1.30;99.90
43665;DHT22;29263;48.172;11.484;2022-12-10T03:30:32;1.30;99.90
43665;DHT22;29263;48.172;11.484;2022-12-10T03:32:58;1.20;99.90
43665;DHT22;29263;48.172;11.484;2022-12-10T03:35:24;1.20;99.90
43665;DHT22;29263;48.172;11.484;2022-12-10T03:37:51;1.20;99.90
43665;DHT22;29263;48.172;11.484;2022-12-10T03:40:20;1.30;99.90
43665;DHT22;29263;48.172;11.484;2022-12-10T03:42:47;1.30;99.90
43665;DHT22;29263;48.172;11.484;2022-12-10T03:45:12;1.30;99.90
43665;DHT22;29263;48.172;11.484;2022-12-10T03:47:39;1.30;99.90
43665;DHT22;29263;48.172;11.484;2022-12-10T03:50:05;1.30;99.90
43665;DHT22;29263;48.172;11.484;2022-12-10T03:52:31;1.30;99.90
43665;DHT22;29263;48.172;11.484;2022-12-10T03:54:56;1.30;99.90
43665;DHT22;29263;48.172;11.484;2022-12-10T03:57:22;1.30;99.90
43665;DHT22;29263;48.172;11.484;2022-12-10T03:59:47;1.30;99.90
43665;DHT22;29263;48.172;11.484;2022-12-10T04:02:13;1.30;99.90
43665;DHT22;29263;48.172;11.484;2022-12-10T04:04:39;1.20;99.90
43665;DHT22;29263;48.172;11.484;2022-12-10T04:07:04;1.20;99.90
43665;DHT22;29263;48.172;11.484;2022-12-10T04:09:30;1.20;99.90
43665;DHT22;29263;48.172;11.484;2022-12-10T04:11:59;1.20;99.90
43665;DHT22;29263;48.172;11.484;2022-12-10T04:14:26;1.20;99.90
43665;DHT22;29263;48.172;11.484;2022-12-10T04:17:11;1.20;99.90
43665;DHT22;29263;48.172;11.484;2022-12-10T04:19:37;1.30;99.90
43665;DHT22;29263;48.172;11.484;2022-12-10T04:22:04;1.30;99.90
43665;DHT22;29263;48.172;11.484;2022-12-10T04:24:48;1.30;99.90
43665;DHT22;29263;48.172;11.484;2022-12-10T04:27:36;1.20;99.90
43665;DHT22;29263;48.172;11.484;2022-12-10T04:30:05;1.20;99.90
43665;DHT22;29263;48.172;11.484;2022-12-10T04:32:31;1.30;99.90
43665;DHT22;29263;48.172;11.484;2022-12-10T04:34:57;1.20;99.90
43665;DHT22;29263;48.172;11.484;2022-12-10T04:37:23;1.20;99.90
43665;DHT22;29263;48.172;11.484;2022-12-10T04:39:50;1.30;99.90
43665;DHT22;29263;48.172;11.484;2022-12-10T04:42:16;1.20;99.90
43665;DHT22;29263;48.172;11.484;2022-12-10T04:44:42;1.20;99.90
43665;DHT22;29263;48.172;11.484;2022-12-10T04:47:09;1.30;99.90
43665;DHT22;29263;48.172;11.484;2022-12-10T04:49:35;1.30;99.90
43665;DHT22;29263;48.172;11.484;2022-12-10T04:52:01;1.30;99.90
43665;DHT22;29263;48.172;11.484;2022-12-10T04:54:27;1.30;99.90
43665;DHT22;29263;48.172;11.484;2022-12-10T04:56:53;1.30;99.90
43665;DHT22;29263;48.172;11.484;2022-12-10T04:59:19;1.30;99.90
43665;DHT22;29263;48.172;11.484;2022-12-10T05:01:45;1.30;99.90
43665;DHT22;29263;48.172;11.484;2022-12-10T05:04:12;1.30;99.90
43665;DHT22;29263;48.172;11.484;2022-12-10T05:06:38;1.30;99.90
43665;DHT22;29263;48.172;11.484;2022-12-10T05:09:05;1.30;99.90
43665;DHT22;29263;48.172;11.484;2022-12-10T05:11:31;1.30;99.90
43665;DHT22;29263;48.172;11.484;2022-12-10T05:13:57;1.30;99.90
43665;DHT22;29263;48.172;11.484;2022-12-10T05:16:25;1.30;99.90
43665;DHT22;29263;48.172;11.484;2022-12-10T05:18:53;1.30;99.90
43665;DHT22;29263;48.172;11.484;2022-12-10T05:21:20;1.30;99.90
43665;DHT22;29263;48.172;11.484;2022-12-10T05:23:48;1.30;99.90
43665;DHT22;29263;48.172;11.484;2022-12-10T05:26:24;1.30;99.90
43665;DHT22;29263;48.172;11.484;2022-12-10T05:28:53;1.30;99.90
43665;DHT22;29263;48.172;11.484;2022-12-10T05:31:29;1.30;99.90
43665;DHT22;29263;48.172;11.484;2022-12-10T05:33:56;1.30;99.90
43665;DHT22;29263;48.172;11.484;2022-12-10T05:36:24;1.20;99.90
43665;DHT22;29263;48.172;11.484;2022-12-10T05:38:50;1.20;99.90
43665;DHT22;29263;48.172;11.484;2022-12-10T05:41:21;1.20;99.90
43665;DHT22;29263;48.172;11.484;2022-12-10T05:43:47;1.20;99.90
43665;DHT22;29263;48.172;11.484;2022-12-10T05:46:18;1.10;99.90
43665;DHT22;29263;48.172;11.484;2022-12-10T05:48:44;1.10;99.90
43665;DHT22;29263;48.172;11.484;2022-12-10T05:51:15;1.10;99.90
43665;DHT22;29263;48.172;11.484;2022-12-10T05:53:41;1.10;99.90
43665;DHT22;29263;48.172;11.484;2022-12-10T05:56:13;1.10;99.90
43665;DHT22;29263;48.172;11.484;2022-12-10T05:58:40;1.10;99.90
43665;DHT22;29263;48.172;11.484;2022-12-10T06:01:08;1.10;99.90
43665;DHT22;29263;48.172;11.484;2022-12-10T06:03:34;1.10;99.90
43665;DHT22;29263;48.172;11.484;2022-12-10T06:06:00;1.10;99.90
43665;DHT22;29263;48.172;11.484;2022-12-10T06:08:25;1.10;99.90
43665;DHT22;29263;48.172;11.484;2022-12-10T06:10:51;1.10;99.90
43665;DHT22;29263;48.172;11.484;2022-12-10T06:13:17;1.10;99.90
43665;DHT22;29263;48.172;11.484;2022-12-10T06:15:43;1.10;99.90
43665;DHT22;29263;48.172;11.484;2022-12-10T06:18:09;1.10;99.90
43665;DHT22;29263;48.172;11.484;2022-12-10T06:20:38;1.10;99.90
43665;DHT22;29263;48.172;11.484;2022-12-10T06:23:04;1.10;99.90
43665;DHT22;29263;48.172;11.484;2022-12-10T06:25:30;1.20;99.90
43665;DHT22;29263;48.172;11.484;2022-12-10T06:27:55;1.20;99.90
43665;DHT22;29263;48.172;11.484;2022-12-10T06:30:21;1.10;99.90
43665;DHT22;29263;48.172;11.484;2022-12-10T06:32:46;1.20;99.90
43665;DHT22;29263;48.172;11.484;2022-12-10T06:35:12;1.20;99.90
43665;DHT22;29263;48.172;11.484;2022-12-10T06:37:37;1.20;99.90
43665;DHT22;29263;48.172;11.484;2022-12-10T06:40:04;1.20;99.90
43665;DHT22;29263;48.172;11.484;2022-12-10T06:42:30;1.20;99.90
43665;DHT22;29263;48.172;11.484;2022-12-10T06:44:56;1.20;99.90
43665;DHT22;29263;48.172;11.484;2022-12-10T06:47:22;1.20;99.90
43665;DHT22;29263;48.172;11.484;2022-12-10T06:49:48;1.30;99.90
43665;DHT22;29263;48.172;11.484;2022-12-10T06:52:14;1.20;99.90
43665;DHT22;29263;48.172;11.484;2022-12-10T06:54:39;1.20;99.90
43665;DHT22;29263;48.172;11.484;2022-12-10T06:57:05;1.20;99.90
43665;DHT22;29263;48.172;11.484;2022-12-10T06:59:31;1.20;99.90
43665;DHT22;29263;48.172;11.484;2022-12-10T07:01:56;1.10;99.90
43665;DHT22;29263;48.172;11.484;2022-12-10T07:04:22;1.20;99.90
43665;DHT22;29263;48.172;11.484;2022-12-10T07:06:48;1.20;99.90
43665;DHT22;29263;48.172;11.484;2022-12-10T07:09:13;1.20;99.90
43665;DHT22;29263;48.172;11.484;2022-12-10T07:11:39;1.20;99.90
43665;DHT22;29263;48.172;11.484;2022-12-10T07:14:05;1.20;99.90
43665;DHT22;29263;48.172;11.484;2022-12-10T07:16:32;1.20;99.90
43665;DHT22;29263;48.172;11.484;2022-12-10T07:19:00;1.20;99.90
43665;DHT22;29263;48.172;11.484;2022-12-10T07:23:54;1.20;99.90
43665;DHT22;29263;48.172;11.484;2022-12-10T07:26:33;1.20;99.90
43665;DHT22;29263;48.172;11.484;2022-12-10T07:29:00;1.20;99.90
43665;DHT22;29263;48.172;11.484;2022-12-10T07:31:26;1.20;99.90
43665;DHT22;29263;48.172;11.484;2022-12-10T07:33:53;1.20;99.90
43665;DHT22;29263;48.172;11.484;2022-12-10T07:36:20;1.20;99.90
43665;DHT22;29263;48.172;11.484;2022-12-10T07:38:48;1.20;99.90
43665;DHT22;29263;48.172;11.484;2022-12-10T07:41:14;1.20;99.90
43665;DHT22;29263;48.172;11.484;2022-12-10T07:43:42;1.20;99.90
43665;DHT22;29263;48.172;11.484;2022-12-10T07:46:17;1.20;99.90
43665;DHT22;29263;48.172;11.484;2022-12-10T07:48:44;1.20;99.90
43665;DHT22;29263;48.172;11.484;2022-12-10T07:51:10;1.20;99.90
43665;DHT22;29263;48.172;11.484;2022-12-10T07:53:36;1.20;99.90
43665;DHT22;29263;48.172;11.484;2022-12-10T07:56:02;1.20;99.90
43665;DHT22;29263;48.172;11.484;2022-12-10T07:58:28;1.10;99.90
43665;DHT22;29263;48.172;11.484;2022-12-10T08:00:54;1.20;99.90
43665;DHT22;29263;48.172;11.484;2022-12-10T08:03:19;1.20;99.90
43665;DHT22;29263;48.172;11.484;2022-12-10T08:05:45;1.10;99.90
43665;DHT22;29263;48.172;11.484;2022-12-10T08:08:11;1.10;99.90
43665;DHT22;29263;48.172;11.484;2022-12-10T08:10:37;1.10;99.90
43665;DHT22;29263;48.172;11.484;2022-12-10T08:13:04;1.20;99.90
43665;DHT22;29263;48.172;11.484;2022-12-10T08:15:30;1.20;99.90
43665;DHT22;29263;48.172;11.484;2022-12-10T08:17:56;1.20;99.90
43665;DHT22;29263;48.172;11.484;2022-12-10T08:20:23;1.10;99.90
43665;DHT22;29263;48.172;11.484;2022-12-10T08:22:48;1.10;99.90
43665;DHT22;29263;48.172;11.484;2022-12-10T08:25:14;1.10;99.90
43665;DHT22;29263;48.172;11.484;2022-12-10T08:27:40;1.00;99.90
43665;DHT22;29263;48.172;11.484;2022-12-10T08:30:06;1.10;99.90
43665;DHT22;29263;48.172;11.484;2022-12-10T08:32:32;1.10;99.90
43665;DHT22;29263;48.172;11.484;2022-12-10T08:34:57;1.10;99.90
43665;DHT22;29263;48.172;11.484;2022-12-10T08:37:23;1.10;99.90
43665;DHT22;29263;48.172;11.484;2022-12-10T08:39:48;1.10;99.90
43665;DHT22;29263;48.172;11.484;2022-12-10T08:42:14;1.20;99.90
43665;DHT22;29263;48.172;11.484;2022-12-10T08:44:40;1.20;99.90
43665;DHT22;29263;48.172;11.484;2022-12-10T08:47:06;1.20;99.90
43665;DHT22;29263;48.172;11.484;2022-12-10T08:49:31;1.30;99.90
43665;DHT22;29263;48.172;11.484;2022-12-10T08:51:57;1.30;99.90
43665;DHT22;29263;48.172;11.484;2022-12-10T08:54:23;1.20;99.90
43665;DHT22;29263;48.172;11.484;2022-12-10T08:56:48;1.20;99.90
43665;DHT22;29263;48.172;11.484;2022-12-10T08:59:14;1.20;99.90
43665;DHT22;29263;48.172;11.484;2022-12-10T09:01:39;1.30;99.90
43665;DHT22;29263;48.172;11.484;2022-12-10T09:04:05;1.30;99.90
43665;DHT22;29263;48.172;11.484;2022-12-10T09:06:31;1.30;99.90
43665;DHT22;29263;48.172;11.484;2022-12-10T09:08:57;1.30;99.90
43665;DHT22;29263;48.172;11.484;2022-12-10T09:11:31;1.30;99.90
43665;DHT22;29263;48.172;11.484;2022-12-10T09:13:57;1.30;99.90
43665;DHT22;29263;48.172;11.484;2022-12-10T09:16:34;1.30;99.90
43665;DHT22;29263;48.172;11.484;2022-12-10T09:19:01;1.30;99.90
43665;DHT22;29263;48.172;11.484;2022-12-10T09:21:28;1.30;99.90
43665;DHT22;29263;48.172;11.484;2022-12-10T09:23:53;1.30;99.90
43665;DHT22;29263;48.172;11.484;2022-12-10T09:26:20;1.40;99.90
43665;DHT22;29263;48.172;11.484;2022-12-10T09:28:46;1.40;99.90
43665;DHT22;29263;48.172;11.484;2022-12-10T09:31:13;1.40;99.90
43665;DHT22;29263;48.172;11.484;2022-12-10T09:33:39;1.40;99.90
43665;DHT22;29263;48.172;11.484;2022-12-10T09:36:07;1.50;99.90
43665;DHT22;29263;48.172;11.484;2022-12-10T09:38:40;1.40;99.90
43665;DHT22;29263;48.172;11.484;2022-12-10T09:52:21;1.40;99.90
43665;DHT22;29263;48.172;11.484;2022-12-10T09:57:28;1.40;99.90
43665;DHT22;29263;48.172;11.484;2022-12-10T09:59:56;1.40;99.90
43665;DHT22;29263;48.172;11.484;2022-12-10T10:04:49;1.50;99.90
43665;DHT22;29263;48.172;11.484;2022-12-10T10:07:26;1.50;99.90
43665;DHT22;29263;48.172;11.484;2022-12-10T10:09:57;1.50;99.90
43665;DHT22;29263;48.172;11.484;2022-12-10T10:12:23;1.50;99.90
43665;DHT22;29263;48.172;11.484;2022-12-10T10:14:51;1.50;99.90
43665;DHT22;29263;48.172;11.484;2022-12-10T10:17:27;1.50;99.90
43665;DHT22;29263;48.172;11.484;2022-12-10T10:19:54;1.50;99.90
43665;DHT22;29263;48.172;11.484;2022-12-10T10:22:20;1.50;99.90
43665;DHT22;29263;48.172;11.484;2022-12-10T10:24:46;1.50;99.90
43665;DHT22;29263;48.172;11.484;2022-12-10T10:27:14;1.50;99.90
43665;DHT22;29263;48.172;11.484;2022-12-10T10:29:45;1.50;99.90
43665;DHT22;29263;48.172;11.484;2022-12-10T10:32:19;1.50;99.90
43665;DHT22;29263;48.172;11.484;2022-12-10T10:34:53;1.50;99.90
43665;DHT22;29263;48.172;11.484;2022-12-10T10:37:22;1.50;99.90
43665;DHT22;29263;48.172;11.484;2022-12-10T10:39:49;1.50;99.90
43665;DHT22;29263;48.172;11.484;2022-12-10T10:42:34;1.50;99.90
43665;DHT22;29263;48.172;11.484;2022-12-10T10:45:48;1.50;99.90
43665;DHT22;29263;48.172;11.484;2022-12-10T10:48:22;1.50;99.90
43665;DHT22;29263;48.172;11.484;2022-12-10T10:53:48;1.60;99.90
43665;DHT22;29263;48.172;11.484;2022-12-10T10:56:23;1.60;99.90
43665;DHT22;29263;48.172;11.484;2022-12-10T10:59:02;1.60;99.90
43665;DHT22;29263;48.172;11.484;2022-12-10T11:01:47;1.60;99.90
43665;DHT22;29263;48.172;11.484;2022-12-10T11:04:15;1.60;99.90
43665;DHT22;29263;48.172;11.484;2022-12-10T11:06:42;1.70;99.90
43665;DHT22;29263;48.172;11.484;2022-12-10T11:09:13;1.70;99.90
43665;DHT22;29263;48.172;11.484;2022-12-10T11:11:50;1.80;99.90
43665;DHT22;29263;48.172;11.484;2022-12-10T11:17:22;1.70;99.90
43665;DHT22;29263;48.172;11.484;2022-12-10T11:20:01;1.70;99.90
43665;DHT22;29263;48.172;11.484;2022-12-10T11:22:32;1.70;99.90
43665;DHT22;29263;48.172;11.484;2022-12-10T11:24:59;1.70;99.90
43665;DHT22;29263;48.172;11.484;2022-12-10T11:30:18;1.70;99.90
43665;DHT22;29263;48.172;11.484;2022-12-10T11:33:27;1.70;99.90
43665;DHT22;29263;48.172;11.484;2022-12-10T11:38:53;1.70;99.90
43665;DHT22;29263;48.172;11.484;2022-12-10T11:41:32;1.70;99.90
43665;DHT22;29263;48.172;11.484;2022-12-10T11:47:09;1.70;99.90
43665;DHT22;29263;48.172;11.484;2022-12-10T11:49:47;1.80;99.90
43665;DHT22;29263;48.172;11.484;2022-12-10T11:55:32;1.90;99.90
43665;DHT22;29263;48.172;11.484;2022-12-10T12:00:57;1.90;99.90
43665;DHT22;29263;48.172;11.484;2022-12-10T12:06:34;1.80;99.90
43665;DHT22;29263;48.172;11.484;2022-12-10T12:14:32;1.70;99.90
43665;DHT22;29263;48.172;11.484;2022-12-10T12:19:57;1.60;99.90
43665;DHT22;29263;48.172;11.484;2022-12-10T12:22:31;1.60;99.90
43665;DHT22;29263;48.172;11.484;2022-12-10T12:25:09;1.60;99.90
43665;DHT22;29263;48.172;11.484;2022-12-10T12:27:45;1.60;99.90
43665;DHT22;29263;48.172;11.484;2022-12-10T12:30:18;1.60;99.90
43665;DHT22;29263;48.172;11.484;2022-12-10T12:35:48;1.60;99.90
43665;DHT22;29263;48.172;11.484;2022-12-10T12:38:31;1.60;99.90
43665;DHT22;29263;48.172;11.484;2022-12-10T12:46:44;1.60;99.90
43665;DHT22;29263;48.172;11.484;2022-12-10T12:52:33;1.50;99.90
43665;DHT22;29263;48.172;11.484;2022-12-10T12:55:11;1.50;99.90
43665;DHT22;29263;48.172;11.484;2022-12-10T12:57:49;1.50;99.90
43665;DHT22;29263;48.172;11.484;2022-12-10T13:00:19;1.50;99.90
43665;DHT22;29263;48.172;11.484;2022-12-10T13:03:19;1.50;99.90
43665;DHT22;29263;48.172;11.484;2022-12-10T13:05:45;1.50;99.90
43665;DHT22;29263;48.172;11.484;2022-12-10T13:08:22;1.50;99.90
43665;DHT22;29263;48.172;11.484;2022-12-10T13:10:59;1.50;99.90
43665;DHT22;29263;48.172;11.484;2022-12-10T13:13:37;1.50;99.90
43665;DHT22;29263;48.172;11.484;2022-12-10T13:29:54;1.50;99.90
43665;DHT22;29263;48.172;11.484;2022-12-10T13:48:55;1.50;99.90
43665;DHT22;29263;48.172;11.484;2022-12-10T13:54:12;1.40;99.90
43665;DHT22;29263;48.172;11.484;2022-12-10T13:56:41;1.40;99.90
43665;DHT22;29263;48.172;11.484;2022-12-10T13:59:34;1.40;99.90
43665;DHT22;29263;48.172;11.484;2022-12-10T14:07:56;1.50;99.90
43665;DHT22;29263;48.172;11.484;2022-12-10T14:10:27;1.50;99.90
43665;DHT22;29263;48.172;11.484;2022-12-10T14:12:55;1.50;99.90
43665;DHT22;29263;48.172;11.484;2022-12-10T14:15:25;1.50;99.90
43665;DHT22;29263;48.172;11.484;2022-12-10T14:18:08;1.50;99.90
43665;DHT22;29263;48.172;11.484;2022-12-10T14:20:35;1.50;99.90
43665;DHT22;29263;48.172;11.484;2022-12-10T14:23:21;1.50;99.90
43665;DHT22;29263;48.172;11.484;2022-12-10T14:26:13;1.40;99.90
43665;DHT22;29263;48.172;11.484;2022-12-10T14:28:41;1.30;99.90
43665;DHT22;29263;48.172;11.484;2022-12-10T14:31:21;1.30;99.90
43665;DHT22;29263;48.172;11.484;2022-12-10T14:33:51;1.30;99.90
43665;DHT22;29263;48.172;11.484;2022-12-10T14:36:57;1.30;99.90
43665;DHT22;29263;48.172;11.484;2022-12-10T14:39:28;1.30;99.90
43665;DHT22;29263;48.172;11.484;2022-12-10T14:42:00;1.20;99.90
43665;DHT22;29263;48.172;11.484;2022-12-10T14:44:27;1.20;99.90
43665;DHT22;29263;48.172;11.484;2022-12-10T14:47:15;1.20;99.90
43665;DHT22;29263;48.172;11.484;2022-12-10T14:49:44;1.20;99.90
43665;DHT22;29263;48.172;11.484;2022-12-10T14:52:19;1.20;99.90
43665;DHT22;29263;48.172;11.484;2022-12-10T14:54:45;1.20;99.90
43665;DHT22;29263;48.172;11.484;2022-12-10T14:57:34;1.10;99.90
43665;DHT22;29263;48.172;11.484;2022-12-10T15:00:14;1.10;99.90
43665;DHT22;29263;48.172;11.484;2022-12-10T15:02:45;1.20;99.90
43665;DHT22;29263;48.172;11.484;2022-12-10T15:05:19;1.10;99.90
43665;DHT22;29263;48.172;11.484;2022-12-10T15:08:14;1.20;99.90
43665;DHT22;29263;48.172;11.484;2022-12-10T15:10:40;1.10;99.90
43665;DHT22;29263;48.172;11.484;2022-12-10T15:13:17;1.10;99.90
43665;DHT22;29263;48.172;11.484;2022-12-10T15:15:48;1.10;99.90
43665;DHT22;29263;48.172;11.484;2022-12-10T15:18:18;1.10;99.90
43665;DHT22;29263;48.172;11.484;2022-12-10T15:20:46;1.10;99.90
43665;DHT22;29263;48.172;11.484;2022-12-10T15:26:20;1.10;99.90
43665;DHT22;29263;48.172;11.484;2022-12-10T15:28:48;1.10;99.90
43665;DHT22;29263;48.172;11.484;2022-12-10T15:34:13;1.10;99.90
43665;DHT22;29263;48.172;11.484;2022-12-10T15:39:37;1.10;99.90
43665;DHT22;29263;48.172;11.484;2022-12-10T15:42:24;1.10;99.90
43665;DHT22;29263;48.172;11.484;2022-12-10T15:44:56;1.00;99.90
43665;DHT22;29263;48.172;11.484;2022-12-10T15:47:26;1.00;99.90
43665;DHT22;29263;48.172;11.484;2022-12-10T15:49:53;1.10;99.90
43665;DHT22;29263;48.172;11.484;2022-12-10T15:54:47;1.00;99.90
43665;DHT22;29263;48.172;11.484;2022-12-10T15:57:14;1.00;99.90
43665;DHT22;29263;48.172;11.484;2022-12-10T15:59:42;0.90;99.90
43665;DHT22;29263;48.172;11.484;2022-12-10T16:02:35;0.80;99.90
43665;DHT22;29263;48.172;11.484;2022-12-10T16:07:50;0.80;99.90
43665;DHT22;29263;48.172;11.484;2022-12-10T16:10:19;0.70;99.90
43665;DHT22;29263;48.172;11.484;2022-12-10T16:12:47;0.70;99.90
43665;DHT22;29263;48.172;11.484;2022-12-10T16:15:19;0.70;99.90
43665;DHT22;29263;48.172;11.484;2022-12-10T16:17:45;0.80;99.90
43665;DHT22;29263;48.172;11.484;2022-12-10T16:22:47;0.80;99.90
43665;DHT22;29263;48.172;11.484;2022-12-10T16:25:13;0.70;99.90
43665;DHT22;29263;48.172;11.484;2022-12-10T16:27:39;0.70;99.90
43665;DHT22;29263;48.172;11.484;2022-12-10T16:30:32;0.80;99.90
43665;DHT22;29263;48.172;11.484;2022-12-10T16:32:58;0.70;99.90
43665;DHT22;29263;48.172;11.484;2022-12-10T16:35:24;0.70;99.90
43665;DHT22;29263;48.172;11.484;2022-12-10T16:37:50;0.70;99.90
43665;DHT22;29263;48.172;11.484;2022-12-10T16:40:22;0.80;99.90
43665;DHT22;29263;48.172;11.484;2022-12-10T16:42:48;0.80;99.90
43665;DHT22;29263;48.172;11.484;2022-12-10T16:45:15;0.70;99.90
43665;DHT22;29263;48.172;11.484;2022-12-10T16:47:41;0.70;99.90
43665;DHT22;29263;48.172;11.484;2022-12-10T16:50:07;0.70;99.90
43665;DHT22;29263;48.172;11.484;2022-12-10T16:52:33;0.70;99.90
43665;DHT22;29263;48.172;11.484;2022-12-10T16:54:58;0.70;99.90
43665;DHT22;29263;48.172;11.484;2022-12-10T16:57:24;0.70;99.90
43665;DHT22;29263;48.172;11.484;2022-12-10T16:59:50;0.70;99.90
43665;DHT22;29263;48.172;11.484;2022-12-10T17:02:17;0.70;99.90
43665;DHT22;29263;48.172;11.484;2022-12-10T17:04:43;0.80;99.90
43665;DHT22;29263;48.172;11.484;2022-12-10T17:07:10;0.70;99.90
43665;DHT22;29263;48.172;11.484;2022-12-10T17:09:37;0.60;99.90
43665;DHT22;29263;48.172;11.484;2022-12-10T17:12:03;0.60;99.90
43665;DHT22;29263;48.172;11.484;2022-12-10T17:14:38;0.70;99.90
43665;DHT22;29263;48.172;11.484;2022-12-10T17:17:05;0.60;99.90
43665;DHT22;29263;48.172;11.484;2022-12-10T17:19:33;0.70;99.90
43665;DHT22;29263;48.172;11.484;2022-12-10T17:21:59;0.70;99.90
43665;DHT22;29263;48.172;11.484;2022-12-10T17:24:26;0.60;99.90
43665;DHT22;29263;48.172;11.484;2022-12-10T17:26:52;0.60;99.90
43665;DHT22;29263;48.172;11.484;2022-12-10T17:29:30;0.50;99.90
43665;DHT22;29263;48.172;11.484;2022-12-10T17:31:56;0.50;99.90
43665;DHT22;29263;48.172;11.484;2022-12-10T17:34:22;0.50;99.90
43665;DHT22;29263;48.172;11.484;2022-12-10T17:36:50;0.50;99.90
43665;DHT22;29263;48.172;11.484;2022-12-10T17:39:17;0.40;99.90
43665;DHT22;29263;48.172;11.484;2022-12-10T17:41:43;0.40;99.90
43665;DHT22;29263;48.172;11.484;2022-12-10T17:44:08;0.40;99.90
43665;DHT22;29263;48.172;11.484;2022-12-10T17:46:34;0.40;99.90
43665;DHT22;29263;48.172;11.484;2022-12-10T17:49:00;0.40;99.90
43665;DHT22;29263;48.172;11.484;2022-12-10T17:51:27;0.40;99.90
43665;DHT22;29263;48.172;11.484;2022-12-10T17:53:53;0.40;99.90
43665;DHT22;29263;48.172;11.484;2022-12-10T17:56:21;0.50;99.90